createdAt,value
2019-02-09T00:01:24.918Z,95809.30
2019-02-09T00:03:54.283Z,95809.47
2019-02-09T00:06:23.669Z,95805.19
2019-02-09T00:08:53.055Z,95816.07
2019-02-09T00:11:22.395Z,95810.88
2019-02-09T00:13:51.924Z,95807.80
2019-02-09T00:16:21.380Z,95809.69
2019-02-09T00:18:50.758Z,95806.12
2019-02-09T00:21:20.247Z,95803.69
2019-02-09T00:23:49.673Z,95807.38
2019-02-09T00:26:38.543Z,95802.74
2019-02-09T00:29:09.663Z,95803.63
2019-02-09T00:31:39.122Z,95799.45
2019-02-09T00:34:08.498Z,95802.26
2019-02-09T00:36:37.957Z,95791.53
2019-02-09T00:39:08.575Z,95796.45
2019-02-09T00:41:37.934Z,95797.83
2019-02-09T00:44:07.299Z,95798.00
2019-02-09T00:46:36.677Z,95798.32
2019-02-09T00:49:06.091Z,95791.67
2019-02-09T00:51:35.538Z,95790.02
2019-02-09T00:54:04.948Z,95782.86
2019-02-09T00:56:34.292Z,95779.61
2019-02-09T00:59:03.706Z,95778.51
2019-02-09T01:01:34.318Z,95781.91
2019-02-09T01:04:03.838Z,95772.34
2019-02-09T01:06:33.278Z,95772.34
2019-02-09T01:09:02.674Z,95782.23
2019-02-09T01:11:32.077Z,95777.67
2019-02-09T01:14:01.520Z,95772.44
2019-02-09T01:16:30.985Z,95767.28
2019-02-09T01:19:00.369Z,95767.28
2019-02-09T01:21:29.862Z,95766.92
2019-02-09T01:23:59.604Z,95770.70
2019-02-09T01:26:29.520Z,95758.73
2019-02-09T01:28:59.014Z,95758.73
2019-02-09T01:31:28.340Z,95752.07
2019-02-09T01:33:57.746Z,95756.56
2019-02-09T01:36:27.191Z,95762.69
2019-02-09T01:38:56.540Z,95747.32
2019-02-09T01:41:25.964Z,95747.32
2019-02-09T01:43:55.397Z,95752.12
2019-02-09T01:46:24.774Z,95748.66
2019-02-09T01:48:54.229Z,95734.03
2019-02-09T01:51:23.742Z,95749.48
2019-02-09T01:53:53.105Z,95755.33
2019-02-09T01:56:22.455Z,95749.20
2019-02-09T01:58:51.963Z,95751.89
2019-02-09T02:01:21.495Z,95750.00
2019-02-09T02:03:50.844Z,95750.56
2019-02-09T02:06:20.325Z,95746.29
2019-02-09T02:08:49.757Z,95752.95
2019-02-09T02:11:19.141Z,95747.63
2019-02-09T02:13:48.546Z,95745.48
2019-02-09T02:16:17.958Z,95745.23
2019-02-09T02:18:47.372Z,95746.53
2019-02-09T02:21:16.755Z,95744.96
2019-02-09T02:23:46.104Z,95743.11
2019-02-09T02:26:15.459Z,95747.91
2019-02-09T02:28:44.851Z,95743.11
2019-02-09T02:31:14.199Z,95741.50
2019-02-09T02:33:43.594Z,95747.09
2019-02-09T02:36:13.038Z,95748.42
2019-02-09T02:38:42.400Z,95746.05
2019-02-09T02:41:11.911Z,95744.19
2019-02-09T02:43:41.310Z,95746.30
2019-02-09T02:46:10.819Z,95752.97
2019-02-09T02:48:40.229Z,95747.64
2019-02-09T02:51:09.722Z,95754.27
2019-02-09T02:53:39.054Z,95752.94
2019-02-09T02:56:08.491Z,95752.70
2019-02-09T02:58:37.890Z,95754.02
2019-02-09T03:01:07.205Z,95755.36
2019-02-09T03:03:36.634Z,95754.02
2019-02-09T03:06:06.107Z,95763.60
2019-02-09T03:08:35.454Z,95757.20
2019-02-09T03:11:04.966Z,95755.61
2019-02-09T03:13:34.364Z,95759.61
2019-02-09T03:16:03.791Z,95755.63
2019-02-09T03:18:33.189Z,95759.59
2019-02-09T03:21:02.572Z,95753.46
2019-02-09T03:23:31.954Z,95761.20
2019-02-09T03:26:01.456Z,95761.73
2019-02-09T03:28:31.185Z,95763.87
2019-02-09T03:31:00.555Z,95759.07
2019-02-09T03:33:29.997Z,95763.59
2019-02-09T03:35:59.358Z,95758.79
2019-02-09T03:38:28.727Z,95766.25
2019-02-09T03:40:58.148Z,95763.59
2019-02-09T03:43:27.501Z,95765.19
2019-02-09T03:45:56.877Z,95764.92
2019-02-09T03:48:26.309Z,95760.92
2019-02-09T03:50:55.996Z,95764.11
2019-02-09T03:53:25.350Z,95767.05
2019-02-09T03:55:54.738Z,95767.04
2019-02-09T03:58:24.089Z,95764.91
2019-02-09T04:00:55.443Z,95765.70
2019-02-09T04:03:24.691Z,95765.98
2019-02-09T04:05:54.133Z,95765.72
2019-02-09T04:08:23.504Z,95559.45
2019-02-09T04:10:52.846Z,95762.00
2019-02-09T04:13:22.225Z,95768.38
2019-02-09T04:15:51.742Z,95766.77
2019-02-09T04:18:21.072Z,95764.64
2019-02-09T04:20:50.465Z,95772.63
2019-02-09T04:23:19.853Z,95761.45
2019-02-09T04:25:49.213Z,95760.67
2019-02-09T04:28:18.578Z,95758.55
2019-02-09T04:30:48.029Z,95763.87
2019-02-09T04:33:17.396Z,95759.32
2019-02-09T04:35:46.781Z,95761.97
2019-02-09T04:38:16.209Z,95761.97
2019-02-09T04:40:45.548Z,95762.50
2019-02-09T04:43:14.886Z,95757.46
2019-02-09T04:45:44.251Z,95757.73
2019-02-09T04:48:13.602Z,95761.44
2019-02-09T04:50:43.004Z,95760.64
2019-02-09T04:53:12.412Z,95766.77
2019-02-09T04:55:41.791Z,95755.63
2019-02-09T04:58:11.152Z,95766.25
2019-02-09T05:00:40.555Z,95761.74
2019-02-09T05:03:09.870Z,95770.52
2019-02-09T05:05:39.302Z,95765.70
2019-02-09T05:08:08.735Z,95769.13
2019-02-09T05:10:38.085Z,95767.28
2019-02-09T05:13:07.435Z,95759.09
2019-02-09T05:15:37.149Z,95759.09
2019-02-09T05:18:06.939Z,95766.27
2019-02-09T05:20:36.284Z,95760.92
2019-02-09T05:23:05.857Z,95768.13
2019-02-09T05:25:35.251Z,95763.33
2019-02-09T05:28:04.667Z,95764.38
2019-02-09T05:30:34.075Z,95769.18
2019-02-09T05:33:03.390Z,95764.39
2019-02-09T05:35:32.793Z,95760.92
2019-02-09T05:38:02.246Z,95762.53
2019-02-09T05:40:31.572Z,95758.82
2019-02-09T05:43:00.958Z,95767.06
2019-02-09T05:45:31.005Z,95780.07
2019-02-09T05:48:00.392Z,95770.77
2019-02-09T05:50:29.806Z,95772.64
2019-02-09T05:52:59.241Z,95769.45
2019-02-09T05:55:28.625Z,95634.90
2019-02-09T05:57:58.066Z,95775.30
2019-02-09T06:00:32.151Z,95784.59
2019-02-09T06:03:01.574Z,95790.46
2019-02-09T06:05:30.999Z,95790.46
2019-02-09T06:08:00.401Z,95780.61
2019-02-09T06:10:29.860Z,95784.84
2019-02-09T06:12:59.297Z,95788.31
2019-02-09T06:15:29.275Z,95790.98
2019-02-09T06:17:58.704Z,95784.87
2019-02-09T06:20:28.382Z,95793.38
2019-02-09T06:22:58.022Z,95793.38
2019-02-09T06:25:27.525Z,95790.98
2019-02-09T06:27:56.993Z,95779.56
2019-02-09T06:30:27.960Z,95779.56
2019-02-09T06:32:57.484Z,95784.06
2019-02-09T06:35:26.964Z,95784.06
2019-02-09T06:37:56.471Z,95786.20
2019-02-09T06:40:25.907Z,95793.66
2019-02-09T06:42:55.320Z,95792.86
2019-02-09T06:45:25.118Z,95791.25
2019-02-09T06:47:56.090Z,95794.95
2019-02-09T06:50:28.696Z,95791.53
2019-02-09T06:52:58.030Z,95796.56
2019-02-09T06:55:27.485Z,95793.86
2019-02-09T06:57:56.977Z,95789.02
2019-02-09T07:00:26.347Z,95790.15
2019-02-09T07:02:55.863Z,95786.95
2019-02-09T07:05:25.318Z,95795.41
2019-02-09T07:07:54.783Z,95793.85
2019-02-09T07:10:24.834Z,95792.58
2019-02-09T07:12:54.396Z,95795.24
2019-02-09T07:15:25.983Z,95805.08
2019-02-09T07:17:55.702Z,95800.56
2019-02-09T07:20:25.090Z,95801.89
2019-02-09T07:22:54.939Z,95797.91
2019-02-09T07:25:24.759Z,95796.84
2019-02-09T07:27:54.169Z,95798.18
2019-02-09T07:30:25.699Z,95799.47
2019-02-09T07:32:55.669Z,95800.52
2019-02-09T07:35:25.128Z,95798.66
2019-02-09T07:37:54.641Z,95798.95
2019-02-09T07:40:24.571Z,95797.62
2019-02-09T07:42:54.166Z,95801.37
2019-02-09T07:45:25.342Z,95798.45
2019-02-09T07:47:54.833Z,95805.62
2019-02-09T07:50:25.129Z,95790.44
2019-02-09T07:52:54.502Z,95802.37
2019-02-09T07:55:24.048Z,95802.37
2019-02-09T07:57:53.640Z,95795.96
2019-02-09T08:00:24.960Z,95801.81
2019-02-09T08:02:54.624Z,95800.52
2019-02-09T08:05:26.446Z,95802.41
2019-02-09T08:07:55.810Z,95802.88
2019-02-09T08:10:27.374Z,95800.42
2019-02-09T08:12:57.318Z,95798.77
2019-02-09T08:15:28.434Z,95798.38
2019-02-09T08:17:57.788Z,95799.19
2019-02-09T08:20:28.152Z,95797.52
2019-02-09T08:22:58.600Z,95798.55
2019-02-09T08:25:29.821Z,95795.36
2019-02-09T08:27:59.548Z,95789.77
2019-02-09T08:30:40.572Z,95791.81
2019-02-09T08:33:10.259Z,95793.59
2019-02-09T08:35:40.385Z,95800.08
2019-02-09T08:38:11.223Z,95801.32
2019-02-09T08:40:40.724Z,95792.45
2019-02-09T08:43:10.133Z,95795.92
2019-02-09T08:45:39.555Z,95788.43
2019-02-09T08:48:08.908Z,95788.95
2019-02-09T08:50:44.130Z,95787.63
2019-02-09T08:53:13.676Z,95787.36
2019-02-09T08:55:43.027Z,95795.11
2019-02-09T08:58:12.428Z,95798.12
2019-02-09T09:00:41.878Z,95791.74
2019-02-09T09:03:11.240Z,95795.57
2019-02-09T09:05:40.630Z,95796.45
2019-02-09T09:08:10.199Z,95792.16
2019-02-09T09:10:39.658Z,95794.08
2019-02-09T09:13:09.017Z,95792.86
2019-02-09T09:15:43.777Z,95796.09
2019-02-09T09:18:13.220Z,95792.25
2019-02-09T09:20:45.576Z,95796.13
2019-02-09T09:23:14.987Z,95793.12
2019-02-09T09:25:44.450Z,95797.59
2019-02-09T09:28:14.031Z,95800.59
2019-02-09T09:30:43.380Z,95793.95
2019-02-09T09:33:12.802Z,95793.13
2019-02-09T09:35:42.201Z,95787.98
2019-02-09T09:38:11.570Z,95789.52
2019-02-09T09:40:41.847Z,95789.88
2019-02-09T09:43:11.264Z,95789.31
2019-02-09T09:45:41.057Z,95794.70
2019-02-09T09:48:12.661Z,95785.28
2019-02-09T09:50:42.139Z,95783.52
2019-02-09T09:53:11.575Z,95785.42
2019-02-09T09:55:41.187Z,95784.21
2019-02-09T09:58:10.686Z,95773.56
2019-02-09T10:00:40.041Z,95766.61
2019-02-09T10:03:10.792Z,95769.73
2019-02-09T10:05:40.419Z,95772.33
2019-02-09T10:08:11.262Z,95770.06
2019-02-09T10:10:52.672Z,95769.63
2019-02-09T10:13:22.057Z,95770.72
2019-02-09T10:15:51.440Z,95771.81
2019-02-09T10:18:20.910Z,95772.00
2019-02-09T10:20:50.294Z,95769.50
2019-02-09T10:23:19.634Z,95767.36
2019-02-09T10:25:49.073Z,95768.25
2019-02-09T10:28:18.559Z,95757.15
2019-02-09T10:30:47.955Z,95759.89
2019-02-09T10:33:17.314Z,95759.59
2019-02-09T10:35:46.949Z,95755.48
2019-02-09T10:38:16.443Z,95750.94
2019-02-09T10:40:45.853Z,95752.30
2019-02-09T10:43:15.365Z,95753.53
2019-02-09T10:45:44.928Z,95752.34
2019-02-09T10:48:16.495Z,95740.66
2019-02-09T10:50:46.798Z,95737.62
2019-02-09T10:53:16.518Z,95745.48
2019-02-09T10:55:45.881Z,95740.16
2019-02-09T10:58:15.268Z,95735.24
2019-02-09T11:00:57.250Z,95730.78
2019-02-09T11:03:26.881Z,95732.15
2019-02-09T11:05:56.323Z,95728.62
2019-02-09T11:08:25.739Z,95733.53
2019-02-09T11:10:55.114Z,95724.05
2019-02-09T11:13:24.703Z,95726.72
2019-02-09T11:15:54.093Z,95720.92
2019-02-09T11:18:24.063Z,95715.05
2019-02-09T11:20:53.464Z,95722.98
2019-02-09T11:23:22.885Z,95714.38
2019-02-09T11:25:52.382Z,95709.65
2019-02-09T11:28:21.853Z,95710.23
2019-02-09T11:30:51.284Z,95702.01
2019-02-09T11:33:20.760Z,95706.00
2019-02-09T11:35:50.694Z,95703.25
2019-02-09T11:38:20.111Z,95697.16
2019-02-09T11:40:52.130Z,95693.05
2019-02-09T11:43:21.537Z,95694.31
2019-02-09T11:45:50.937Z,95688.02
2019-02-09T11:48:20.686Z,95539.66
2019-02-09T11:50:50.105Z,95684.39
2019-02-09T11:53:19.514Z,95679.47
2019-02-09T11:55:49.804Z,95674.84
2019-02-09T11:58:19.259Z,95667.62
2019-02-09T12:00:51.336Z,95670.22
2019-02-09T12:03:20.723Z,95669.60
2019-02-09T12:05:50.070Z,95663.11
2019-02-09T12:08:19.455Z,95665.35
2019-02-09T12:10:49.234Z,95654.42
2019-02-09T12:13:18.646Z,95655.42
2019-02-09T12:15:48.071Z,95652.08
2019-02-09T12:18:17.449Z,95655.07
2019-02-09T12:20:46.915Z,95647.38
2019-02-09T12:23:16.323Z,95647.38
2019-02-09T12:25:45.722Z,95643.61
2019-02-09T12:28:15.210Z,95633.28
2019-02-09T12:30:44.667Z,95634.29
2019-02-09T12:33:22.580Z,95640.06
2019-02-09T12:35:45.464Z,95631.45
2019-02-09T12:38:14.882Z,95624.40
2019-02-09T12:40:44.278Z,95622.22
2019-02-09T12:43:13.632Z,95620.64
2019-02-09T12:45:43.596Z,95622.67
2019-02-09T12:48:15.803Z,95612.88
2019-02-09T12:50:46.159Z,95618.04
2019-02-09T12:53:16.867Z,95618.38
2019-02-09T12:55:47.309Z,95616.20
2019-02-09T12:58:17.560Z,95615.09
2019-02-09T13:00:46.936Z,95616.34
2019-02-09T13:03:18.969Z,95617.83
2019-02-09T13:05:48.257Z,95624.06
2019-02-09T13:08:17.893Z,95614.06
2019-02-09T13:10:47.282Z,95609.81
2019-02-09T13:13:17.638Z,95605.47
2019-02-09T13:15:47.027Z,95601.02
2019-02-09T13:18:16.521Z,95607.12
2019-02-09T13:20:45.895Z,95602.47
2019-02-09T13:23:15.681Z,95597.09
2019-02-09T13:25:45.129Z,95598.77
2019-02-09T13:28:15.459Z,95595.02
2019-02-09T13:30:44.995Z,95590.49
2019-02-09T13:33:14.795Z,95593.78
2019-02-09T13:35:44.780Z,95583.64
2019-02-09T13:38:14.193Z,95593.55
2019-02-09T13:40:43.766Z,95583.90
2019-02-09T13:43:13.294Z,95583.49
2019-02-09T13:45:48.275Z,95590.91
2019-02-09T13:48:17.727Z,95583.34
2019-02-09T13:50:47.107Z,95583.47
2019-02-09T13:53:16.542Z,95583.86
2019-02-09T13:55:46.292Z,95588.48
2019-02-09T13:58:15.828Z,95582.58
2019-02-09T14:00:45.230Z,95573.69
2019-02-09T14:03:14.674Z,95577.27
2019-02-09T14:05:43.981Z,95574.86
2019-02-09T14:08:13.487Z,95411.45
2019-02-09T14:10:42.975Z,95568.28
2019-02-09T14:13:14.657Z,95577.12
2019-02-09T14:15:43.538Z,95576.88
2019-02-09T14:18:13.174Z,95576.81
2019-02-09T14:20:42.647Z,95572.53
2019-02-09T14:23:12.129Z,95579.56
2019-02-09T14:25:41.551Z,95577.19
2019-02-09T14:28:11.168Z,95584.75
2019-02-09T14:30:40.887Z,95584.44
2019-02-09T14:33:11.032Z,95578.48
2019-02-09T14:35:41.452Z,95577.53
2019-02-09T14:38:11.573Z,95578.75
2019-02-09T14:40:40.950Z,95579.71
2019-02-09T14:43:10.915Z,95582.61
2019-02-09T14:45:45.583Z,95580.55
2019-02-09T14:48:15.104Z,95582.80
2019-02-09T14:50:45.162Z,95589.89
2019-02-09T14:53:45.537Z,95589.10
2019-02-09T14:56:33.941Z,95581.33
2019-02-09T14:59:11.910Z,95584.05
2019-02-09T15:01:41.607Z,95581.20
2019-02-09T15:04:11.128Z,95575.31
2019-02-09T15:06:40.547Z,95585.31
2019-02-09T15:09:10.769Z,95580.39
2019-02-09T15:11:40.605Z,95583.36
2019-02-09T15:14:10.019Z,95572.97
2019-02-09T15:16:52.076Z,95571.90
2019-02-09T15:19:28.032Z,95398.20
2019-02-09T15:21:57.826Z,95574.48
2019-02-09T15:24:27.225Z,95574.55
2019-02-09T15:26:56.676Z,95573.47
2019-02-09T15:29:26.293Z,95580.75
2019-02-09T15:31:55.885Z,95580.64
2019-02-09T15:34:25.310Z,95575.66
2019-02-09T15:36:54.647Z,95577.23
2019-02-09T15:39:24.053Z,95581.98
2019-02-09T15:41:53.454Z,95580.14
2019-02-09T15:44:22.862Z,95580.37
2019-02-09T15:46:52.332Z,95582.45
2019-02-09T15:49:21.704Z,95589.17
2019-02-09T15:51:51.077Z,95582.62
2019-02-09T15:54:20.487Z,95589.84
2019-02-09T15:56:49.968Z,95592.03
2019-02-09T15:59:19.409Z,95603.86
2019-02-09T16:01:48.871Z,95610.83
2019-02-09T16:04:18.352Z,95614.56
2019-02-09T16:06:47.686Z,95613.98
2019-02-09T16:09:17.127Z,95618.02
2019-02-09T16:11:46.437Z,95620.42
2019-02-09T16:14:15.775Z,95621.72
2019-02-09T16:16:45.252Z,95630.83
2019-02-09T16:19:14.687Z,95627.98
2019-02-09T16:21:44.135Z,95622.44
2019-02-09T16:24:13.535Z,95628.56
2019-02-09T16:26:42.898Z,95631.36
2019-02-09T16:29:12.525Z,95623.12
2019-02-09T16:31:41.974Z,95628.56
2019-02-09T16:34:11.377Z,95628.97
2019-02-09T16:36:40.812Z,95629.92
2019-02-09T16:39:11.511Z,95630.50
2019-02-09T16:41:40.945Z,95636.70
2019-02-09T16:44:10.323Z,95638.44
2019-02-09T16:46:39.656Z,95632.09
2019-02-09T16:49:09.061Z,95635.27
2019-02-09T16:51:38.520Z,95638.36
2019-02-09T16:54:14.140Z,95638.67
2019-02-09T16:56:43.850Z,95640.94
2019-02-09T16:59:13.388Z,95641.44
2019-02-09T17:01:44.152Z,95633.31
2019-02-09T17:04:15.162Z,95635.52
2019-02-09T17:06:44.857Z,95636.05
2019-02-09T17:09:14.698Z,95642.65
2019-02-09T17:11:44.637Z,95644.22
2019-02-09T17:14:14.263Z,95643.09
2019-02-09T17:16:43.991Z,95637.57
2019-02-09T17:19:13.762Z,95637.75
2019-02-09T17:21:43.675Z,95636.80
2019-02-09T17:24:13.510Z,95642.46
2019-02-09T17:26:43.541Z,95645.98
2019-02-09T17:29:34.759Z,95644.03
2019-02-09T17:32:09.119Z,95643.23
2019-02-09T17:34:51.013Z,95639.47
2019-02-09T17:37:38.359Z,95628.92
2019-02-09T17:40:10.800Z,95660.81
2019-02-09T17:42:53.623Z,95661.02
2019-02-09T17:45:30.217Z,95648.23
2019-02-09T17:47:59.850Z,95648.23
2019-02-09T17:50:29.202Z,95657.67
2019-02-09T17:53:00.292Z,95657.67
2019-02-09T17:55:29.925Z,95662.06
2019-02-09T17:57:59.390Z,95661.66
2019-02-09T18:00:38.454Z,95676.36
2019-02-09T18:03:09.040Z,95672.36
2019-02-09T18:05:39.063Z,95674.56
2019-02-09T18:08:12.449Z,95672.22
2019-02-09T18:10:46.473Z,95671.94
2019-02-09T18:13:18.264Z,95671.94
2019-02-09T18:15:47.652Z,95687.78
2019-02-09T18:18:18.288Z,95687.63
2019-02-09T18:20:47.846Z,95686.63
2019-02-09T18:23:17.183Z,95686.63
2019-02-09T18:25:52.621Z,95528.49
2019-02-09T18:28:22.156Z,95528.49
2019-02-09T18:30:51.586Z,95690.94
2019-02-09T18:33:21.647Z,95690.94
2019-02-09T18:35:51.482Z,95704.41
2019-02-09T18:38:20.922Z,95700.08
2019-02-09T18:40:50.678Z,95706.38
2019-02-09T18:43:20.136Z,95704.25
2019-02-09T18:45:49.508Z,95708.40
2019-02-09T18:48:19.095Z,95705.16
2019-02-09T18:50:48.579Z,95713.66
2019-02-09T18:53:17.966Z,95707.84
2019-02-09T18:55:48.898Z,95711.13
2019-02-09T18:58:19.803Z,95705.94
2019-02-09T19:00:49.327Z,95714.71
2019-02-09T19:03:20.818Z,95709.56
2019-02-09T19:05:50.535Z,95716.48
2019-02-09T19:08:19.989Z,95709.66
2019-02-09T19:10:49.357Z,95707.95
2019-02-09T19:13:18.789Z,95707.95
2019-02-09T19:15:48.175Z,95719.16
2019-02-09T19:18:17.684Z,95721.55
2019-02-09T19:20:50.723Z,95704.01
2019-02-09T19:23:20.182Z,95715.68
2019-02-09T19:25:51.456Z,95709.86
2019-02-09T19:28:20.792Z,95712.80
2019-02-09T19:30:50.346Z,95713.56
2019-02-09T19:33:20.310Z,95703.72
2019-02-09T19:35:49.703Z,95708.76
2019-02-09T19:38:19.126Z,95708.00
2019-02-09T19:40:48.538Z,95709.58
2019-02-09T19:43:17.912Z,95714.65
2019-02-09T19:45:47.558Z,95709.86
2019-02-09T19:48:17.122Z,95714.93
2019-02-09T19:50:46.558Z,95708.28
2019-02-09T19:53:15.923Z,95709.86
2019-02-09T19:55:45.354Z,95715.17
2019-02-09T19:58:14.818Z,95711.19
2019-02-09T20:00:44.939Z,95541.92
2019-02-09T20:03:14.384Z,95714.41
2019-02-09T20:05:43.726Z,95713.07
2019-02-09T20:08:13.528Z,95714.12
2019-02-09T20:10:43.894Z,95718.91
2019-02-09T20:13:13.507Z,95716.53
2019-02-09T20:15:42.989Z,95729.55
2019-02-09T20:18:12.528Z,95721.56
2019-02-09T20:20:47.454Z,95724.22
2019-02-09T20:23:13.293Z,95730.07
2019-02-09T20:25:42.690Z,95727.97
2019-02-09T20:28:12.131Z,95730.09
2019-02-09T20:30:42.064Z,95737.52
2019-02-09T20:33:11.514Z,95740.20
2019-02-09T20:35:40.985Z,95731.94
2019-02-09T20:38:10.784Z,95734.08
2019-02-09T20:40:42.720Z,95734.08
2019-02-09T20:43:13.766Z,95729.81
2019-02-09T20:45:43.084Z,95741.25
2019-02-09T20:48:12.731Z,95746.57
2019-02-09T20:50:42.170Z,95751.34
2019-02-09T20:53:12.282Z,95748.42
2019-02-09T20:55:41.674Z,95746.56
2019-02-09T20:58:12.705Z,95760.66
2019-02-09T21:00:42.277Z,95759.53
2019-02-09T21:03:11.606Z,95779.98
2019-02-09T21:05:41.035Z,95772.80
2019-02-09T21:08:10.786Z,95772.54
2019-02-09T21:10:40.727Z,95768.80
2019-02-09T21:13:10.233Z,95775.95
2019-02-09T21:15:40.055Z,95776.78
2019-02-09T21:18:09.524Z,95771.19
2019-02-09T21:20:39.307Z,95766.19
2019-02-09T21:23:09.012Z,95761.67
2019-02-09T21:25:40.688Z,95767.48
2019-02-09T21:28:16.609Z,95771.48
2019-02-09T21:30:46.660Z,95773.63
2019-02-09T21:33:18.638Z,95775.73
2019-02-09T21:35:48.076Z,95782.95
2019-02-09T21:38:17.566Z,95778.95
2019-02-09T21:40:47.147Z,95782.38
2019-02-09T21:43:16.814Z,95785.26
2019-02-09T21:45:46.521Z,95787.42
2019-02-09T21:48:16.611Z,95790.58
2019-02-09T21:50:46.506Z,95786.30
2019-02-09T21:53:16.249Z,95781.74
2019-02-09T21:55:45.737Z,95779.64
2019-02-09T21:58:15.385Z,95770.65
2019-02-09T22:00:45.129Z,95767.20
2019-02-09T22:03:15.366Z,95760.00
2019-02-09T22:05:51.839Z,95752.26
2019-02-09T22:08:19.569Z,95745.06
2019-02-09T22:10:48.610Z,95747.72
2019-02-09T22:13:18.076Z,95755.16
2019-02-09T22:15:47.545Z,95759.67
2019-02-09T22:18:16.989Z,95752.78
2019-02-09T22:20:52.573Z,95747.19
2019-02-09T22:23:17.574Z,95746.91
2019-02-09T22:25:47.043Z,95750.13
2019-02-09T22:28:16.464Z,95746.73
2019-02-09T22:30:45.965Z,95740.11
2019-02-09T22:33:24.051Z,95738.75
2019-02-09T22:35:46.820Z,95732.31
2019-02-09T22:38:16.164Z,95740.46
2019-02-09T22:40:45.586Z,95739.36
2019-02-09T22:43:15.002Z,95742.00
2019-02-09T22:45:44.419Z,95738.23
2019-02-09T22:48:13.787Z,95686.60
2019-02-09T22:50:45.057Z,95741.42
2019-02-09T22:53:14.815Z,95737.45
2019-02-09T22:55:44.246Z,95749.91
2019-02-09T22:58:15.484Z,95757.59
2019-02-09T23:01:21.243Z,95760.80
2019-02-09T23:04:03.136Z,95753.96
2019-02-09T23:06:54.506Z,95757.97
2019-02-09T23:09:26.125Z,95766.41
2019-02-09T23:11:55.500Z,95755.05
2019-02-09T23:14:24.851Z,95751.22
2019-02-09T23:16:54.297Z,95766.56
2019-02-09T23:19:23.730Z,95762.94
2019-02-09T23:21:53.196Z,95764.89
2019-02-09T23:24:22.663Z,95757.97
2019-02-09T23:26:51.970Z,95772.56
2019-02-09T23:29:21.288Z,95763.56
2019-02-09T23:31:50.686Z,95762.17
2019-02-09T23:34:20.164Z,95761.70
2019-02-09T23:36:49.693Z,95769.63
2019-02-09T23:39:19.074Z,95770.36
2019-02-09T23:41:48.477Z,95773.42
2019-02-09T23:44:17.781Z,95772.05
2019-02-09T23:46:47.178Z,95762.95
2019-02-09T23:49:16.552Z,95766.13
2019-02-09T23:51:45.909Z,95772.64
2019-02-09T23:54:15.265Z,95772.69
2019-02-09T23:56:44.610Z,95776.39
2019-02-09T23:59:13.935Z,95779.75
